Time;durP1;ratioP1;P1;durP2;ratioP2;P2;SDS_P1;SDS_P2;PMS_P1;PMS_P2;Temp;Humidity;BMP_temperature;BMP_pressure;BME280_temperature;BME280_humidity;BME280_pressure;Samples;Min_cycle;Max_cycle;Signal;HPM_P1;HPM_P2
2022/09/29 04:26:52;;;;;;;12.50;9.70;;;7.50;99.90;;;;;;6212364;22;20636;-87
2022/09/29 04:33:54;;;;;;;;;;;;;;;;;;;;;
2022/09/29 04:58:13;;;;;;;;;;;;;;;;;;;;;
2022/09/29 05:01:04;;;;;;;;;;;;;;;;;;;;;
2022/09/29 05:04:32;;;;;;;12.60;9.70;;;7.20;99.90;;;;;;6213277;23;20239;-87
2022/09/29 05:17:33;;;;;;;13.95;9.55;;;7.30;99.90;;;;;;6212341;22;20161;-87
2022/09/29 12:16:58;;;;;;;;;;;;;;;;;;;;;
2022/09/29 12:20:23;;;;;;;;;;;;;;;;;;;;;
2022/09/29 12:23:36;;;;;;;3.00;2.00;;;27.00;1.00;;;;;;6248195;23;20438;-82
2022/09/29 12:30:03;;;;;;;;;;;;;;;;;;;;;
2022/09/29 12:32:56;;;;;;;;;;;;;;;;;;;;;
2022/09/29 12:42:32;;;;;;;;;;;;;;;;;;;;;
2022/09/29 12:45:34;;;;;;;5.53;2.00;;;25.30;1.00;;;;;;6250582;23;20388;-83
2022/09/29 12:48:23;;;;;;;6.43;2.40;;;25.40;1.00;;;;;;6225611;23;20407;-82
2022/09/29 12:50:59;;;;;;;3.30;2.13;;;25.90;1.00;;;;;;6252990;23;20738;-82
2022/09/29 12:53:38;;;;;;;4.23;2.40;;;25.80;1.00;;;;;;6252261;23;20360;-82
2022/09/29 12:56:12;;;;;;;5.30;3.10;;;25.30;1.00;;;;;;6252009;23;20387;-82
2022/09/29 12:58:58;;;;;;;3.67;2.23;;;25.00;1.00;;;;;;6223990;23;20387;-82
2022/09/29 13:01:33;;;;;;;4.30;2.50;;;25.30;1.00;;;;;;6222515;23;20404;-82
2022/09/29 13:04:17;;;;;;;4.70;2.03;;;26.00;2.40;;;;;;6249928;23;20376;-83
2022/09/29 13:07:01;;;;;;;4.40;2.17;;;26.70;3.60;;;;;;6221897;23;20387;-82
2022/09/29 13:09:45;;;;;;;4.47;1.93;;;26.80;4.50;;;;;;6221769;23;20412;-83
2022/09/29 13:12:23;;;;;;;2.97;1.87;;;27.60;6.60;;;;;;6223617;23;20822;-82
2022/09/29 13:14:59;;;;;;;7.13;1.50;;;28.50;8.70;;;;;;6223509;23;20442;-83
2022/09/29 13:17:36;;;;;;;2.47;1.67;;;29.30;9.70;;;;;;6244990;23;20383;-83
2022/09/29 13:20:53;;;;;;;3.23;2.33;;;30.10;11.50;;;;;;6252517;23;20429;-83
2022/09/29 13:23:38;;;;;;;1.93;1.30;;;30.90;12.60;;;;;;6244641;23;21195;-83
2022/09/29 13:26:29;;;;;;;3.00;1.70;;;31.20;11.50;;;;;;6249795;23;20388;-82
2022/09/29 13:29:01;;;;;;;2.23;1.50;;;30.60;9.70;;;;;;6251658;23;20414;-82
2022/09/29 13:31:31;;;;;;;3.80;2.20;;;30.20;9.30;;;;;;6251248;22;20395;-82
2022/09/29 13:34:09;;;;;;;4.90;1.90;;;29.40;7.20;;;;;;6247743;23;20777;-83
2022/09/29 13:36:52;;;;;;;;;;;;;;;;;;;;;
2022/09/29 13:40:21;;;;;;;;;;;;;;;;;;;;;
2022/09/29 13:43:01;;;;;;;3.50;1.83;;;27.80;4.00;;;;;;6233563;22;20392;-82
2022/09/29 13:45:34;;;;;;;3.50;1.90;;;27.30;3.50;;;;;;6248451;22;20479;-82
2022/09/29 16:54:29;;;;;;;2.10;1.30;;;18.20;30.40;;;;;;5984373;23;20390;-84
2022/09/29 16:59:03;;;;;;;;;;;;;;;;;;;;;
2022/09/29 17:45:25;;;;;;;;;;;;;;;;;;;;;
2022/09/29 18:00:36;;;;;;;9.83;6.00;;;15.50;99.90;;;;;;6246331;22;20746;-85
2022/09/29 18:04:00;;;;;;;;;;;;;;;;;;;;;
2022/09/29 18:07:11;;;;;;;;;;;;;;;;;;;;;
2022/09/29 18:12:59;;;;;;;7.43;5.10;;;15.20;99.90;;;;;;6228930;23;20896;-84
2022/09/29 18:19:24;;;;;;;8.80;6.20;;;15.20;99.90;;;;;;6221209;23;20157;-84
2022/09/29 18:22:35;;;;;;;7.63;6.00;;;15.20;99.90;;;;;;6224743;23;20464;-83
2022/09/29 18:28:13;;;;;;;;;;;;;;;;;;;;;
2022/09/29 18:31:07;;;;;;;6.60;5.90;;;15.00;99.90;;;;;;6247050;22;20750;-85
2022/09/29 18:34:08;;;;;;;7.57;5.87;;;14.80;99.90;;;;;;6219690;23;20392;-84
2022/09/29 18:36:43;;;;;;;6.93;5.40;;;14.70;99.90;;;;;;6220659;23;20384;-84
2022/09/29 18:39:36;;;;;;;8.07;5.47;;;14.60;99.90;;;;;;6220479;23;20414;-85
